Time;durP1;ratioP1;P1;durP2;ratioP2;P2;SDS_P1;SDS_P2;PMS_P1;PMS_P2;Temp;Humidity;BMP_temperature;BMP_pressure;BME280_temperature;BME280_humidity;BME280_pressure;Samples;Min_cycle;Max_cycle;Signal;HPM_P1;HPM_P2
2023/08/01 00:00:41;;;;;;;13.23;11.13;;;;;;;22.71;90.92;99542.72;5104648;28;20568;-24
2023/08/01 00:03:09;;;;;;;14.13;11.43;;;;;;;22.93;90.34;99565.53;5104493;28;20031;-24
2023/08/01 00:05:34;;;;;;;;;;;;;;;23.43;87.65;99567.94;5105102;28;20122;-24
2023/08/01 00:07:59;;;;;;;13.13;10.20;;;;;;;23.51;87.09;99567.16;5104426;28;20014;-24
2023/08/01 00:10:25;;;;;;;13.10;10.98;;;;;;;23.45;87.36;99560.28;5104527;28;20354;-27
2023/08/01 00:12:50;;;;;;;13.43;10.93;;;;;;;23.49;86.55;99555.78;5104878;28;20023;-25
2023/08/01 00:15:18;;;;;;;12.43;11.00;;;;;;;23.38;86.88;99549.06;5104126;28;20033;-24
2023/08/01 00:17:43;;;;;;;13.60;11.20;;;;;;;23.29;86.21;99567.28;5104444;28;20032;-24
2023/08/01 00:20:09;;;;;;;17.80;13.52;;;;;;;22.85;87.86;99570.59;5104544;28;20081;-23
2023/08/01 00:22:34;;;;;;;16.38;12.73;;;;;;;22.70;88.00;99562.06;5104862;28;20027;-24
2023/08/01 00:25:00;;;;;;;16.23;12.43;;;;;;;22.59;88.83;99550.66;5137201;27;20023;-25
2023/08/01 00:27:25;;;;;;;15.57;12.20;;;;;;;22.75;88.30;99551.84;5104674;28;20531;-25
2023/08/01 00:29:51;;;;;;;16.40;13.02;;;;;;;22.74;88.68;99542.09;5104532;28;20475;-24
2023/08/01 00:32:16;;;;;;;15.55;12.73;;;;;;;22.83;88.29;99555.72;5104269;28;20027;-24
2023/08/01 00:34:42;;;;;;;15.48;13.05;;;;;;;22.88;88.57;99544.69;5104392;28;20081;-24
2023/08/01 00:37:07;;;;;;;15.38;12.95;;;;;;;23.08;87.56;99550.75;5104073;28;20038;-24
2023/08/01 00:39:32;;;;;;;15.13;12.65;;;;;;;22.89;88.24;99548.25;5104275;28;20088;-25
2023/08/01 00:41:59;;;;;;;16.13;13.50;;;;;;;22.83;88.78;99547.56;5104080;28;20788;-24
2023/08/01 00:44:24;;;;;;;14.02;12.52;;;;;;;22.77;89.13;99552.34;5104775;28;20624;-27
2023/08/01 00:46:49;;;;;;;16.77;12.65;;;;;;;22.48;90.36;99541.19;5104128;28;20024;-24
2023/08/01 00:49:15;;;;;;;15.10;12.65;;;;;;;22.35;91.63;99546.38;5104117;28;20108;-24
2023/08/01 00:51:41;;;;;;;15.25;11.80;;;;;;;22.25;90.96;99539.28;5104251;28;20020;-24
2023/08/01 00:54:07;;;;;;;14.38;11.90;;;;;;;22.10;92.78;99541.53;5104018;28;20020;-23
2023/08/01 00:56:33;;;;;;;14.48;12.48;;;;;;;21.98;92.51;99545.56;5104410;28;20112;-23
2023/08/01 00:58:58;;;;;;;15.02;12.85;;;;;;;21.78;93.52;99537.91;5104077;28;20024;-24
2023/08/01 01:01:24;;;;;;;16.73;12.57;;;;;;;21.86;94.47;99531.75;5104096;28;20050;-23
2023/08/01 01:03:50;;;;;;;16.05;13.57;;;;;;;22.07;92.76;99537.53;5104124;28;20028;-24
2023/08/01 01:06:25;;;;;;;14.95;13.02;;;;;;;22.07;93.31;99527.44;5104392;28;20027;-23
2023/08/01 01:08:51;;;;;;;16.80;13.40;;;;;;;22.21;92.75;99527.41;5104159;28;20389;-23
2023/08/01 01:11:16;;;;;;;14.75;13.10;;;;;;;22.14;92.33;99531.66;5103951;28;20085;-24
2023/08/01 01:13:42;;;;;;;16.20;13.70;;;;;;;22.15;92.68;99525.09;5103867;28;20019;-23
2023/08/01 01:16:07;;;;;;;18.45;12.80;;;;;;;22.23;91.22;99529.78;5104121;28;20038;-23
2023/08/01 01:18:32;;;;;;;14.57;12.02;;;;;;;22.20;90.83;99527.69;5103777;28;20043;-23
2023/08/01 01:20:58;;;;;;;16.38;12.32;;;;;;;22.14;90.50;99507.22;5106893;28;20081;-24
2023/08/01 01:23:25;;;;;;;14.05;11.63;;;;;;;22.26;91.36;99532.72;5107765;28;20020;-23
2023/08/01 01:25:51;;;;;;;14.85;12.02;;;;;;;22.28;90.65;99529.69;5107343;28;20061;-23
2023/08/01 01:28:18;;;;;;;14.18;12.23;;;;;;;22.12;92.31;99533.88;5107689;28;20031;-23
2023/08/01 01:30:45;;;;;;;14.40;11.60;;;;;;;22.39;89.67;99509.31;5107357;28;20122;-24
2023/08/01 01:33:11;;;;;;;14.35;11.85;;;;;;;22.30;91.16;99519.31;5107393;28;20503;-23
2023/08/01 01:35:39;;;;;;;14.18;12.45;;;;;;;22.57;88.82;99525.69;5107268;28;20036;-24
2023/08/01 01:38:04;;;;;;;;;;;;;;;22.62;88.72;99522.88;5107760;28;20488;-23
2023/08/01 01:40:30;;;;;;;15.65;11.38;;;;;;;22.25;91.07;99512.13;5107544;28;19961;-23
2023/08/01 01:42:56;;;;;;;13.05;11.35;;;;;;;22.27;90.82;99517.22;5107591;28;20034;-27
2023/08/01 01:45:21;;;;;;;12.85;11.50;;;;;;;22.46;88.62;99517.81;5107458;28;20135;-24
2023/08/01 01:47:47;;;;;;;14.00;11.85;;;;;;;22.35;89.22;99516.50;5106804;28;20487;-23
2023/08/01 01:50:12;;;;;;;12.95;10.63;;;;;;;22.14;90.42;99518.06;5107095;28;20690;-24
2023/08/01 01:52:38;;;;;;;13.82;10.57;;;;;;;21.83;92.33;99507.94;5106949;27;20027;-24
2023/08/01 01:55:04;;;;;;;14.63;11.43;;;;;;;22.32;89.00;99519.81;5107263;28;20019;-24
2023/08/01 01:57:29;;;;;;;13.07;11.05;;;;;;;22.55;87.16;99511.63;5106704;28;20115;-23
2023/08/01 01:59:54;;;;;;;13.32;10.52;;;;;;;22.46;86.45;99515.09;5106910;28;20031;-24
2023/08/01 02:02:20;;;;;;;15.95;11.05;;;;;;;22.30;87.46;99505.75;5106608;28;20032;-23
2023/08/01 02:04:50;;;;;;;14.40;10.93;;;;;;;22.18;87.10;99510.91;5107088;28;20590;-25
2023/08/01 02:07:15;;;;;;;12.95;10.50;;;;;;;22.11;87.35;99507.81;5106556;28;20035;-24
2023/08/01 02:09:41;;;;;;;12.35;10.48;;;;;;;22.16;86.97;99510.41;5106633;28;20051;-24
2023/08/01 02:12:09;;;;;;;12.93;10.85;;;;;;;22.37;85.39;99516.97;5106891;28;20452;-24
2023/08/01 02:14:35;;;;;;;13.88;11.35;;;;;;;22.35;85.01;99518.38;5106211;28;20096;-25
2023/08/01 02:17:00;;;;;;;12.98;10.65;;;;;;;22.36;84.69;99512.66;5106689;28;20609;-24
2023/08/01 02:19:28;;;;;;;12.85;10.32;;;;;;;22.28;85.68;99513.41;5106617;28;20038;-26
2023/08/01 02:21:54;;;;;;;13.40;10.30;;;;;;;22.24;85.76;99520.56;5106666;28;20027;-23
2023/08/01 02:24:19;;;;;;;13.25;11.18;;;;;;;22.36;84.32;99520.00;5106666;28;20070;-25
2023/08/01 02:26:45;;;;;;;12.90;11.00;;;;;;;22.35;84.43;99524.63;5106428;28;20024;-24
2023/08/01 02:29:10;;;;;;;13.63;10.95;;;;;;;22.32;84.38;99529.88;5106684;28;20074;-24
2023/08/01 02:31:35;;;;;;;13.73;11.75;;;;;;;22.31;85.12;99523.63;5105809;28;20032;-24
2023/08/01 02:34:01;;;;;;;14.93;11.27;;;;;;;22.05;85.70;99526.16;5106378;28;20039;-24
2023/08/01 02:36:26;;;;;;;13.05;11.32;;;;;;;22.04;86.59;99528.06;5105988;28;20023;-27
2023/08/01 02:38:52;;;;;;;13.40;11.32;;;;;;;22.19;84.32;99520.66;5106288;27;20731;-24
2023/08/01 02:41:17;;;;;;;12.95;11.20;;;;;;;21.87;85.60;99525.22;5105911;28;20034;-24
2023/08/01 02:43:43;;;;;;;13.20;10.98;;;;;;;21.42;88.27;99515.09;5106446;28;20064;-24
2023/08/01 02:46:08;;;;;;;15.68;11.45;;;;;;;21.46;88.93;99531.56;5105565;28;20023;-24
2023/08/01 02:48:35;;;;;;;13.18;10.98;;;;;;;21.67;86.89;99521.06;5105752;28;20416;-24
2023/08/01 02:51:00;;;;;;;13.20;11.23;;;;;;;21.41;88.67;99523.50;5105893;28;20016;-23
2023/08/01 02:53:26;;;;;;;12.95;10.90;;;;;;;20.98;91.86;99521.91;5106872;28;20050;-29
2023/08/01 02:55:51;;;;;;;13.85;11.07;;;;;;;20.80;93.18;99512.81;5107051;28;20020;-24
2023/08/01 02:58:17;;;;;;;15.40;11.05;;;;;;;20.99;91.99;99514.63;5106268;28;20035;-24
2023/08/01 03:00:42;;;;;;;15.70;11.45;;;;;;;21.32;89.41;99531.56;5106856;28;20441;-23
2023/08/01 03:03:07;;;;;;;18.77;12.35;;;;;;;21.39;87.91;99520.28;5106688;28;20023;-23
2023/08/01 03:05:36;;;;;;;14.93;12.30;;;;;;;21.32;87.94;99523.41;5106560;28;20023;-24
2023/08/01 03:08:02;;;;;;;15.40;12.10;;;;;;;21.25;89.00;99528.47;5106503;28;20050;-24
2023/08/01 03:10:27;;;;;;;12.20;10.40;;;;;;;21.17;89.81;99529.97;5106719;28;20057;-24
2023/08/01 03:12:53;;;;;;;15.63;11.27;;;;;;;20.90;91.33;99519.13;5107015;28;20030;-23
2023/08/01 03:15:18;;;;;;;13.20;10.35;;;;;;;20.78;92.93;99528.56;5106356;28;20016;-22
2023/08/01 03:17:44;;;;;;;14.98;10.77;;;;;;;20.70;94.11;99534.66;5106257;28;20112;-23
2023/08/01 03:20:10;;;;;;;13.85;11.10;;;;;;;20.85;92.91;99534.38;5106103;28;20027;-23
2023/08/01 03:22:39;;;;;;;12.23;10.73;;;;;;;20.90;92.03;99516.41;5106288;28;20031;-23
2023/08/01 03:25:07;;;;;;;13.63;11.02;;;;;;;21.01;91.99;99531.38;5106064;28;20138;-23
2023/08/01 03:27:33;;;;;;;;;;;;;;;20.90;92.00;99532.66;5106759;28;20492;-22
2023/08/01 03:29:58;;;;;;;13.40;11.63;;;;;;;20.82;92.00;99529.56;5105926;28;19922;-23
2023/08/01 03:32:24;;;;;;;14.25;11.80;;;;;;;20.76;93.55;99538.91;5106749;28;20030;-23
2023/08/01 03:34:49;;;;;;;13.95;11.45;;;;;;;21.04;92.01;99536.19;5106016;28;20036;-23
2023/08/01 03:37:15;;;;;;;13.75;11.55;;;;;;;21.19;90.87;99549.44;5106381;27;20023;-23
2023/08/01 03:39:41;;;;;;;13.65;11.48;;;;;;;20.80;93.14;99542.63;5105816;28;20023;-22
2023/08/01 03:42:06;;;;;;;15.88;12.18;;;;;;;21.16;91.82;99547.31;5105850;28;20072;-24
2023/08/01 03:44:32;;;;;;;14.88;13.00;;;;;;;21.45;89.76;99551.66;5105183;28;20784;-22
2023/08/01 03:46:57;;;;;;;15.05;11.70;;;;;;;20.93;92.33;99551.06;5105737;28;20020;-25
2023/08/01 03:49:23;;;;;;;14.85;11.75;;;;;;;20.99;92.56;99560.69;5104443;28;20586;-23
2023/08/01 03:51:48;;;;;;;13.77;11.90;;;;;;;21.12;91.75;99565.31;5105787;28;20500;-24
2023/08/01 03:54:14;;;;;;;17.08;11.95;;;;;;;21.13;93.47;99564.22;5105486;28;20114;-24
2023/08/01 03:56:42;;;;;;;14.13;12.05;;;;;;;21.37;90.68;99565.91;5105969;28;20031;-23
2023/08/01 03:59:08;;;;;;;14.90;11.30;;;;;;;21.33;91.62;99570.31;5105384;28;20419;-23
2023/08/01 04:01:33;;;;;;;15.63;12.65;;;;;;;21.59;91.21;99568.72;5105613;28;20500;-24
2023/08/01 04:03:59;;;;;;;16.85;13.23;;;;;;;21.70;90.14;99568.47;5105529;28;20081;-23
2023/08/01 04:06:24;;;;;;;15.82;11.98;;;;;;;21.82;89.25;99574.19;5105830;28;20107;-23
2023/08/01 04:08:49;;;;;;;19.40;13.82;;;;;;;21.42;90.56;99580.19;5105597;28;20500;-23
2023/08/01 04:11:15;;;;;;;19.48;15.05;;;;;;;21.24;91.98;99579.16;5105465;28;20763;-24
2023/08/01 04:13:40;;;;;;;18.75;14.60;;;;;;;21.53;90.49;99580.78;5105655;28;20020;-23
2023/08/01 04:16:06;;;;;;;17.92;13.38;;;;;;;21.40;91.54;99570.72;5105616;28;20034;-25
2023/08/01 04:18:31;;;;;;;17.33;13.18;;;;;;;21.49;91.55;99578.97;5105442;28;20028;-24
2023/08/01 04:20:56;;;;;;;17.75;13.70;;;;;;;21.18;92.46;99574.94;5105813;28;20076;-26
2023/08/01 04:23:22;;;;;;;16.13;13.15;;;;;;;21.04;94.53;99569.53;5105639;28;20110;-23
2023/08/01 04:25:47;;;;;;;15.30;13.27;;;;;;;21.37;93.58;99574.84;5105134;28;20091;-23
2023/08/01 04:28:13;;;;;;;17.52;14.05;;;;;;;21.36;93.79;99586.78;5105482;28;20110;-23
2023/08/01 04:30:38;;;;;;;15.48;13.77;;;;;;;21.49;93.62;99585.19;5105358;28;20440;-24
2023/08/01 04:33:04;;;;;;;16.55;14.85;;;;;;;21.56;93.98;99577.47;5105503;28;20074;-24
2023/08/01 04:35:29;;;;;;;17.27;14.93;;;;;;;21.29;96.95;99583.69;5105229;28;20173;-24
2023/08/01 04:37:55;;;;;;;17.30;14.67;;;;;;;21.72;94.61;99585.25;5105550;28;20107;-24
2023/08/01 04:40:20;;;;;;;18.52;15.32;;;;;;;21.66;94.21;99590.81;5104881;28;20107;-23
2023/08/01 04:42:48;;;;;;;16.70;13.63;;;;;;;21.82;94.47;99593.19;5103654;28;20884;-24
2023/08/01 04:45:14;;;;;;;18.15;15.20;;;;;;;22.01;93.36;99574.84;5105367;28;20028;-24
2023/08/01 04:47:41;;;;;;;17.60;15.63;;;;;;;22.00;93.78;99584.09;5104874;28;20813;-23
2023/08/01 04:50:07;;;;;;;19.08;15.38;;;;;;;22.02;94.12;99591.94;5105099;28;20091;-23
2023/08/01 04:52:32;;;;;;;20.92;16.88;;;;;;;22.39;91.92;99593.53;5105057;28;20466;-23
2023/08/01 04:54:58;;;;;;;18.30;16.05;;;;;;;22.63;89.39;99590.47;5106573;28;20767;-24
2023/08/01 04:57:25;;;;;;;18.88;16.88;;;;;;;22.66;90.03;99589.06;5109066;28;20020;-24
2023/08/01 04:59:51;;;;;;;21.73;17.25;;;;;;;22.65;89.92;99590.97;5109081;28;20028;-24
2023/08/01 05:02:16;;;;;;;19.23;16.83;;;;;;;22.41;92.65;99583.16;5109091;28;20142;-24
2023/08/01 05:04:42;;;;;;;20.75;18.05;;;;;;;22.83;90.07;99586.44;5109076;28;20020;-23
2023/08/01 05:07:07;;;;;;;23.75;19.20;;;;;;;23.07;87.82;99588.03;5109011;28;20016;-24
2023/08/01 05:09:33;;;;;;;20.40;17.70;;;;;;;23.08;88.43;99589.59;5109375;28;20030;-24
2023/08/01 05:11:58;;;;;;;21.80;17.98;;;;;;;23.31;88.20;99589.53;5109172;28;20028;-24
2023/08/01 05:14:24;;;;;;;22.05;18.10;;;;;;;23.47;86.76;99591.47;5108889;28;20409;-24
2023/08/01 05:16:49;;;;;;;25.95;21.02;;;;;;;23.23;87.78;99586.47;5108559;28;20432;-25
2023/08/01 05:19:14;;;;;;;22.83;19.15;;;;;;;23.31;88.09;99593.03;5108894;28;20031;-24
2023/08/01 05:21:40;;;;;;;22.65;19.50;;;;;;;23.52;86.90;99604.16;5108457;28;20122;-24
2023/08/01 05:24:05;;;;;;;26.55;19.80;;;;;;;23.84;83.79;99599.44;5108911;28;20023;-22
2023/08/01 05:26:30;;;;;;;23.42;19.50;;;;;;;23.78;83.85;99609.69;5108549;28;20023;-23
2023/08/01 05:28:56;;;;;;;21.83;19.33;;;;;;;23.97;82.88;99595.78;5108902;28;20648;-23
2023/08/01 05:31:21;;;;;;;24.00;19.92;;;;;;;24.14;82.89;99605.06;5108323;28;20031;-22
2023/08/01 05:33:47;;;;;;;18.83;16.85;;;;;;;24.30;79.85;99600.72;5108268;28;20028;-23
2023/08/01 05:36:12;;;;;;;17.02;14.23;;;;;;;24.42;74.92;99602.81;5108263;28;20108;-22
2023/08/01 05:38:37;;;;;;;14.35;12.55;;;;;;;24.42;73.21;99598.16;5108326;28;20030;-23
2023/08/01 05:41:05;;;;;;;14.25;12.23;;;;;;;24.56;74.58;99614.34;5108437;28;20111;-23
2023/08/01 05:43:30;;;;;;;12.82;9.13;;;;;;;24.79;67.80;99609.50;5108126;28;20023;-23
2023/08/01 05:45:56;;;;;;;10.38;9.27;;;;;;;24.99;67.17;99610.72;5108467;28;20084;-24
2023/08/01 05:48:21;;;;;;;11.68;8.88;;;;;;;24.99;66.13;99607.19;5107816;28;20527;-24
2023/08/01 05:50:46;;;;;;;14.70;8.95;;;;;;;24.80;68.89;99608.34;5108192;28;20035;-23
2023/08/01 05:53:12;;;;;;;10.82;9.57;;;;;;;25.02;67.70;99609.25;5108307;28;21136;-24
2023/08/01 05:55:37;;;;;;;10.90;9.18;;;;;;;25.20;68.61;99610.00;5106991;28;20023;-23
2023/08/01 05:58:03;;;;;;;10.45;8.75;;;;;;;25.21;68.23;99612.44;5106837;28;20034;-24
2023/08/01 06:00:30;;;;;;;10.10;7.85;;;;;;;25.22;66.53;99608.56;5107021;28;20069;-24
2023/08/01 06:02:55;;;;;;;8.63;7.03;;;;;;;25.27;62.51;99610.28;5107248;28;20012;-25
2023/08/01 06:05:21;;;;;;;9.57;7.13;;;;;;;25.31;63.85;99610.44;5107098;28;20088;-23
2023/08/01 06:07:46;;;;;;;8.70;7.40;;;;;;;25.40;64.72;99613.94;5105915;28;20125;-23
2023/08/01 06:10:12;;;;;;;8.75;7.43;;;;;;;25.55;63.96;99616.09;5106407;28;20031;-23
2023/08/01 06:12:37;;;;;;;10.57;7.18;;;;;;;25.60;61.91;99602.25;5106875;28;20015;-23
2023/08/01 06:15:04;;;;;;;9.18;7.53;;;;;;;25.76;62.50;99610.66;5106656;28;20042;-23
2023/08/01 06:17:29;;;;;;;9.43;6.50;;;;;;;25.89;59.80;99608.81;5106498;28;20139;-23
2023/08/01 06:19:54;;;;;;;8.68;6.45;;;;;;;25.83;59.54;99610.94;5106931;28;20492;-23
2023/08/01 06:22:20;;;;;;;10.60;5.70;;;;;;;25.83;57.90;99607.41;5106717;28;20019;-23
2023/08/01 06:24:45;;;;;;;10.43;5.45;;;;;;;25.84;57.55;99612.53;5106369;28;20119;-23
2023/08/01 06:27:11;;;;;;;7.07;5.07;;;;;;;25.81;58.22;99607.75;5106275;28;20428;-23
2023/08/01 06:29:37;;;;;;;8.15;5.85;;;;;;;25.72;57.94;99608.91;5106422;28;20111;-25
2023/08/01 06:32:03;;;;;;;7.57;5.82;;;;;;;25.95;57.62;99607.50;5106252;28;20057;-24
2023/08/01 06:34:28;;;;;;;7.63;6.18;;;;;;;26.00;56.16;99610.03;5106357;28;20058;-24
2023/08/01 06:36:54;;;;;;;7.68;6.40;;;;;;;26.16;55.25;99615.69;5106549;28;20031;-23
2023/08/01 06:39:19;;;;;;;7.35;5.03;;;;;;;26.15;56.66;99611.34;5106068;28;20039;-23
2023/08/01 06:41:44;;;;;;;6.65;5.03;;;;;;;26.33;54.97;99609.28;5106050;28;20023;-24
2023/08/01 06:44:10;;;;;;;8.30;5.07;;;;;;;26.42;54.95;99601.81;5105902;28;20028;-24
2023/08/01 06:46:35;;;;;;;7.70;4.80;;;;;;;26.53;53.68;99609.59;5105907;28;20492;-23
2023/08/01 06:49:01;;;;;;;6.65;5.05;;;;;;;26.57;54.67;99610.50;5106012;28;20439;-24
2023/08/01 06:51:26;;;;;;;8.75;5.85;;;;;;;26.70;53.60;99608.63;5106449;28;20020;-24
2023/08/01 06:53:52;;;;;;;5.80;4.90;;;;;;;26.73;53.11;99603.28;5105897;28;20023;-23
2023/08/01 06:56:17;;;;;;;7.22;5.45;;;;;;;26.46;52.68;99605.47;5105792;28;20102;-23
2023/08/01 06:58:43;;;;;;;5.50;4.60;;;;;;;26.52;52.94;99602.50;5105405;28;20083;-23
2023/08/01 07:01:08;;;;;;;7.60;5.10;;;;;;;26.69;53.19;99607.84;5105751;28;20504;-23
2023/08/01 07:03:34;;;;;;;7.28;5.22;;;;;;;26.82;51.76;99598.50;5105821;28;20031;-24
2023/08/01 07:05:59;;;;;;;8.73;6.80;;;;;;;26.73;51.88;99603.28;5105476;28;20020;-23
2023/08/01 07:08:27;;;;;;;9.52;5.20;;;;;;;26.84;53.00;99603.63;5105970;28;20437;-24
2023/08/01 07:10:52;;;;;;;;;;;;;;;27.05;50.69;99598.06;5106321;28;20027;-23
2023/08/01 07:13:19;;;;;;;7.40;4.70;;;;;;;27.08;51.20;99608.34;5105421;28;19912;-23
2023/08/01 07:15:45;;;;;;;7.77;5.13;;;;;;;27.02;49.85;99610.50;5105546;28;20682;-23
2023/08/01 07:18:10;;;;;;;7.90;4.97;;;;;;;27.31;49.62;99605.19;5105052;28;20027;-24
2023/08/01 07:20:35;;;;;;;6.75;4.30;;;;;;;27.44;49.21;99598.56;5103788;28;20485;-24
2023/08/01 07:23:01;;;;;;;7.25;3.90;;;;;;;27.71;48.32;99599.78;5105103;28;20053;-24
2023/08/01 07:25:31;;;;;;;6.28;4.00;;;;;;;27.87;46.53;99599.09;5105372;28;20028;-23
2023/08/01 07:27:57;;;;;;;6.13;3.28;;;;;;;27.84;46.71;99606.84;5105769;28;20081;-25
2023/08/01 07:30:23;;;;;;;5.30;3.42;;;;;;;27.92;47.60;99602.41;5104857;28;20043;-23
2023/08/01 07:32:50;;;;;;;5.93;3.88;;;;;;;28.02;47.15;99595.63;5104901;28;20030;-23
2023/08/01 07:35:16;;;;;;;5.55;4.05;;;;;;;27.99;46.24;99594.41;5105698;28;20024;-23
2023/08/01 07:37:41;;;;;;;6.47;4.45;;;;;;;27.91;47.41;99578.91;5104893;28;20034;-23
2023/08/01 07:40:08;;;;;;;5.72;3.88;;;;;;;28.14;47.69;99603.81;5105027;28;20027;-25
2023/08/01 07:42:33;;;;;;;5.47;3.22;;;;;;;28.14;46.92;99583.84;5104905;28;20028;-24
2023/08/01 07:44:59;;;;;;;4.22;3.00;;;;;;;28.62;44.67;99603.97;5105074;28;20128;-26
2023/08/01 07:47:24;;;;;;;5.20;3.47;;;;;;;28.38;45.21;99589.22;5105328;28;20152;-24
2023/08/01 07:49:50;;;;;;;4.28;3.25;;;;;;;28.45;43.44;99586.66;5104739;28;20416;-23
2023/08/01 07:52:15;;;;;;;5.55;3.20;;;;;;;28.38;42.94;99588.41;5105013;28;20032;-23
2023/08/01 07:54:41;;;;;;;4.80;3.30;;;;;;;28.64;44.97;99587.94;5104680;28;20116;-23
2023/08/01 07:57:06;;;;;;;4.80;3.35;;;;;;;28.67;43.82;99590.00;5104288;28;20016;-23
2023/08/01 07:59:32;;;;;;;4.25;3.22;;;;;;;28.93;45.02;99580.44;5104538;28;20028;-23
2023/08/01 08:01:59;;;;;;;5.45;3.60;;;;;;;28.93;42.79;99588.69;5104678;28;20494;-25
2023/08/01 08:04:25;;;;;;;7.03;3.20;;;;;;;29.36;42.29;99576.00;5105193;28;20031;-25
2023/08/01 08:07:00;;;;;;;4.95;2.88;;;;;;;29.64;40.44;99590.38;5104378;28;20444;-25
2023/08/01 08:09:26;;;;;;;5.93;3.20;;;;;;;29.76;40.14;99585.94;5104736;28;20028;-29
2023/08/01 08:11:52;;;;;;;4.70;3.08;;;;;;;29.74;40.94;99571.78;5104622;28;20042;-28
2023/08/01 08:14:17;;;;;;;4.28;2.97;;;;;;;29.81;40.79;99571.91;5104312;28;20028;-27
2023/08/01 08:16:43;;;;;;;3.72;2.80;;;;;;;30.20;40.48;99571.94;5104327;28;20492;-25
2023/08/01 08:19:09;;;;;;;5.35;3.13;;;;;;;30.34;40.37;99571.41;5104243;28;20668;-27
2023/08/01 08:21:34;;;;;;;5.03;3.03;;;;;;;30.34;38.81;99569.47;5104546;28;20111;-25
2023/08/01 08:24:00;;;;;;;5.15;3.20;;;;;;;30.39;38.69;99569.16;5104292;28;20024;-24
2023/08/01 08:26:25;;;;;;;5.28;2.80;;;;;;;30.33;38.11;99565.13;5104456;28;20492;-24
2023/08/01 08:28:51;;;;;;;4.50;3.00;;;;;;;30.27;39.98;99560.25;5104490;28;20034;-26
2023/08/01 08:31:16;;;;;;;5.20;3.10;;;;;;;30.37;40.00;99554.19;5108021;28;20023;-24
2023/08/01 08:33:41;;;;;;;4.25;3.17;;;;;;;30.50;37.28;99552.84;5109078;28;20043;-24
2023/08/01 08:36:09;;;;;;;7.63;3.47;;;;;;;30.25;38.52;99539.41;5108792;28;20761;-24
2023/08/01 08:38:34;;;;;;;4.63;3.00;;;;;;;30.52;39.64;99556.03;5108484;27;20704;-25
2023/08/01 08:41:13;;;;;;;4.45;3.00;;;;;;;30.57;37.93;99546.69;5108254;28;20535;-31
2023/08/01 08:43:39;;;;;;;5.07;3.28;;;;;;;30.84;38.33;99542.81;5108718;28;20031;-24
2023/08/01 08:46:05;;;;;;;4.30;2.95;;;;;;;30.99;38.02;99556.84;5108985;28;20015;-25
2023/08/01 08:48:32;;;;;;;4.25;2.92;;;;;;;30.79;36.52;99543.16;5108385;28;20032;-25
2023/08/01 08:51:06;;;;;;;4.43;2.90;;;;;;;30.87;35.89;99535.00;5108566;28;20032;-24
2023/08/01 08:53:34;;;;;;;4.13;3.08;;;;;;;30.90;37.44;99543.34;5107988;28;20035;-25
2023/08/01 08:56:01;;;;;;;5.88;3.15;;;;;;;31.10;35.67;99540.47;5108420;28;20023;-27
2023/08/01 08:58:29;;;;;;;5.38;2.92;;;;;;;31.02;37.37;99532.13;5108304;28;20558;-25
2023/08/01 09:00:55;;;;;;;5.28;2.90;;;;;;;31.52;36.74;99534.03;5108179;28;20040;-25
2023/08/01 09:03:21;;;;;;;4.00;2.67;;;;;;;31.70;36.24;99539.78;5107831;28;20031;-25
2023/08/01 09:05:59;;;;;;;4.28;2.97;;;;;;;31.82;35.94;99536.78;5107874;28;20225;-26
2023/08/01 09:08:29;;;;;;;4.53;3.03;;;;;;;31.75;35.03;99533.94;5108093;27;20035;-24
2023/08/01 09:10:55;;;;;;;5.35;3.00;;;;;;;31.86;35.44;99525.81;5108295;27;20037;-24
2023/08/01 09:13:20;;;;;;;3.65;2.70;;;;;;;31.82;35.01;99534.03;5107702;27;20028;-25
2023/08/01 09:15:49;;;;;;;4.50;2.72;;;;;;;32.17;33.97;99532.88;5107880;28;20031;-25
2023/08/01 09:18:14;;;;;;;4.25;2.70;;;;;;;32.28;34.28;99525.50;5108561;28;20035;-25
2023/08/01 09:20:43;;;;;;;4.47;2.70;;;;;;;32.42;33.11;99525.63;5107641;28;20412;-24
2023/08/01 09:23:10;;;;;;;5.75;2.95;;;;;;;32.05;33.38;99517.38;5107442;28;20032;-24
2023/08/01 09:25:36;;;;;;;4.80;3.00;;;;;;;31.99;33.47;99516.91;5107758;28;20062;-26
2023/08/01 09:28:01;;;;;;;4.35;2.95;;;;;;;31.96;33.79;99509.38;5107599;28;20069;-25
2023/08/01 09:30:28;;;;;;;4.80;3.08;;;;;;;31.88;34.93;99507.72;5107488;28;20031;-24
2023/08/01 09:32:54;;;;;;;3.67;2.80;;;;;;;32.05;33.40;99509.09;5107168;28;20028;-25
2023/08/01 09:35:21;;;;;;;3.58;2.80;;;;;;;32.46;32.38;99508.31;5107533;28;20015;-27
2023/08/01 09:37:49;;;;;;;4.73;2.90;;;;;;;32.86;31.82;99501.19;5107649;28;20035;-25
2023/08/01 09:40:19;;;;;;;4.68;2.80;;;;;;;32.77;31.82;99502.28;5106925;28;20277;-23
2023/08/01 09:42:45;;;;;;;4.07;2.30;;;;;;;32.46;32.11;99500.03;5106257;28;20568;-24
2023/08/01 09:45:17;;;;;;;3.35;2.40;;;;;;;32.71;31.12;99492.00;5107425;28;20024;-24
2023/08/01 09:47:44;;;;;;;3.90;2.85;;;;;;;32.71;31.77;99489.22;5107426;28;20058;-24
2023/08/01 09:50:16;;;;;;;4.30;2.90;;;;;;;32.94;30.61;99495.34;5107448;28;20023;-24
2023/08/01 09:52:52;;;;;;;5.97;2.83;;;;;;;32.98;32.12;99484.31;5107065;28;20518;-25
2023/08/01 09:55:18;;;;;;;3.17;2.28;;;;;;;33.05;32.94;99484.34;5107186;28;20028;-23
2023/08/01 09:57:48;;;;;;;3.97;2.88;;;;;;;33.21;31.42;99475.78;5107295;27;20036;-24
2023/08/01 10:00:14;;;;;;;4.03;2.90;;;;;;;33.18;32.91;99477.38;5106946;28;20051;-24
2023/08/01 10:02:43;;;;;;;3.90;2.95;;;;;;;33.13;32.52;99458.38;5106884;27;20027;-26
2023/08/01 10:05:10;;;;;;;5.20;3.15;;;;;;;33.33;31.96;99471.91;5107000;28;20531;-25
2023/08/01 10:07:41;;;;;;;4.78;3.03;;;;;;;33.15;31.57;99467.06;5106840;28;20496;-24
2023/08/01 10:10:07;;;;;;;4.70;3.30;;;;;;;33.01;30.64;99459.47;5106949;28;20026;-24
2023/08/01 10:12:33;;;;;;;5.72;3.00;;;;;;;33.26;30.98;99455.28;5106680;28;20097;-29
2023/08/01 10:14:59;;;;;;;4.65;3.17;;;;;;;33.64;31.49;99455.88;5106662;28;20428;-24
2023/08/01 10:17:25;;;;;;;3.55;3.03;;;;;;;33.33;30.40;99450.59;5106620;28;20019;-24
2023/08/01 10:19:53;;;;;;;4.60;3.00;;;;;;;33.27;30.63;99454.13;5106626;28;20030;-24
2023/08/01 10:22:20;;;;;;;4.90;3.28;;;;;;;33.70;30.25;99452.31;5106505;28;20052;-24
2023/08/01 10:24:47;;;;;;;5.80;3.38;;;;;;;33.53;29.27;99453.84;5106658;28;20058;-26
2023/08/01 10:27:18;;;;;;;5.97;3.78;;;;;;;33.56;29.14;99447.50;5106314;28;20027;-23
2023/08/01 10:29:44;;;;;;;5.03;3.70;;;;;;;33.70;29.12;99429.44;5106293;28;20028;-25
2023/08/01 10:32:12;;;;;;;4.65;3.50;;;;;;;33.68;28.99;99431.78;5106444;28;20031;-25
2023/08/01 10:34:38;;;;;;;4.93;3.60;;;;;;;33.40;30.27;99424.94;5106429;28;20027;-24
2023/08/01 10:37:04;;;;;;;4.57;3.25;;;;;;;34.06;30.24;99424.72;5106273;28;20031;-25
2023/08/01 10:39:29;;;;;;;4.45;3.38;;;;;;;33.95;29.54;99413.66;5106401;28;20046;-23
2023/08/01 10:42:00;;;;;;;4.60;3.58;;;;;;;34.37;29.73;99422.41;5105458;28;20060;-24
2023/08/01 10:44:26;;;;;;;4.57;3.47;;;;;;;34.77;28.00;99410.13;5106488;28;20055;-24
2023/08/01 10:46:55;;;;;;;4.40;3.30;;;;;;;34.39;29.49;99409.75;5106243;28;20055;-25
2023/08/01 10:49:34;;;;;;;5.10;3.70;;;;;;;34.32;28.14;99406.97;5106032;28;20041;-24
2023/08/01 10:52:00;;;;;;;5.13;3.85;;;;;;;34.28;28.05;99397.88;5105713;28;20035;-24
2023/08/01 10:54:26;;;;;;;6.85;3.95;;;;;;;34.39;28.70;99395.91;5105432;28;20085;-24
2023/08/01 10:56:53;;;;;;;6.95;4.20;;;;;;;34.45;27.34;99395.50;5105916;28;20028;-25
2023/08/01 10:59:20;;;;;;;4.93;3.63;;;;;;;34.32;29.13;99386.81;5105760;28;20035;-24
2023/08/01 11:01:51;;;;;;;5.28;4.15;;;;;;;34.40;28.01;99375.34;5105436;28;20055;-24
2023/08/01 11:04:21;;;;;;;5.50;3.85;;;;;;;34.80;27.30;99367.78;5105846;28;20488;-24
2023/08/01 11:06:49;;;;;;;4.85;4.03;;;;;;;35.06;28.74;99378.78;5105441;28;20055;-24
2023/08/01 11:09:19;;;;;;;5.20;4.30;;;;;;;35.30;27.84;99380.66;5104049;28;20035;-25
2023/08/01 11:11:49;;;;;;;5.28;4.10;;;;;;;35.61;26.89;99370.63;5103851;28;20419;-24
2023/08/01 11:14:14;;;;;;;6.15;4.20;;;;;;;35.07;26.53;99363.75;5085574;28;20040;-26
2023/08/01 11:16:40;;;;;;;6.78;4.20;;;;;;;35.13;26.84;99365.69;5085286;28;20085;-24
2023/08/01 11:19:06;;;;;;;5.72;4.68;;;;;;;35.35;26.97;99354.50;5097797;28;20024;-25
2023/08/01 11:21:35;;;;;;;4.72;3.65;;;;;;;35.28;28.09;99351.78;5102225;28;20777;-25